Terminal Aerodrome Forecast
Issued by NWS Boston, MA

Home | Current Version | Previous Version | Text Only | Print | Product List | Glossary On
Versions: 1 2 3 4 5 6 7 8 9 10 11 12 13 14 15 16 17 18 19 20 21 22 23 24
000
FTUS41 KBOX 271739
TAFPVD
TAF
KPVD 271739Z 2718/2818 26004KT P6SM SCT025 BKN250
     FM272000 19005KT P6SM BKN250
     FM280800 03005KT 3SM -DZ BR OVC008
     FM281000 03007KT 3SM -DZ BR OVC003
     FM281200 04010G19KT 2SM -DZ BR OVC008
     FM281600 04013G24KT P6SM -DZ OVC008=

USA.gov is the U.S. government's official web portal to all federal, state and local government web resources and services.